sensor_id;sensor_type;location;lat;lon;timestamp;P1;durP1;ratioP1;P2;durP2;ratioP2
38208;SDS011;24016;52.102;11.584;2023-08-21T00:01:18;7.85;;;4.47;;
38208;SDS011;24016;52.102;11.584;2023-08-21T00:03:44;9.90;;;4.53;;
38208;SDS011;24016;52.102;11.584;2023-08-21T00:06:10;8.60;;;4.65;;
38208;SDS011;24016;52.102;11.584;2023-08-21T00:08:36;6.28;;;4.30;;
38208;SDS011;24016;52.102;11.584;2023-08-21T00:11:02;8.38;;;4.40;;
38208;SDS011;24016;52.102;11.584;2023-08-21T00:13:28;8.55;;;4.95;;
38208;SDS011;24016;52.102;11.584;2023-08-21T00:15:53;7.45;;;4.43;;
38208;SDS011;24016;52.102;11.584;2023-08-21T00:18:20;9.15;;;4.57;;
38208;SDS011;24016;52.102;11.584;2023-08-21T00:20:46;9.55;;;4.85;;
38208;SDS011;24016;52.102;11.584;2023-08-21T00:23:11;8.68;;;4.90;;
38208;SDS011;24016;52.102;11.584;2023-08-21T00:25:37;11.68;;;4.82;;
38208;SDS011;24016;52.102;11.584;2023-08-21T00:28:03;11.32;;;4.95;;
38208;SDS011;24016;52.102;11.584;2023-08-21T00:30:28;10.15;;;4.88;;
38208;SDS011;24016;52.102;11.584;2023-08-21T00:32:54;10.35;;;4.60;;
38208;SDS011;24016;52.102;11.584;2023-08-21T00:35:19;8.95;;;4.72;;
38208;SDS011;24016;52.102;11.584;2023-08-21T00:37:45;9.30;;;5.10;;
38208;SDS011;24016;52.102;11.584;2023-08-21T00:40:11;8.73;;;4.90;;
38208;SDS011;24016;52.102;11.584;2023-08-21T00:42:37;6.80;;;4.90;;
38208;SDS011;24016;52.102;11.584;2023-08-21T00:45:03;8.40;;;4.82;;
38208;SDS011;24016;52.102;11.584;2023-08-21T00:47:29;6.93;;;4.70;;
38208;SDS011;24016;52.102;11.584;2023-08-21T00:49:55;6.95;;;4.82;;
38208;SDS011;24016;52.102;11.584;2023-08-21T00:52:21;8.93;;;4.80;;
38208;SDS011;24016;52.102;11.584;2023-08-21T00:54:46;10.48;;;5.60;;
38208;SDS011;24016;52.102;11.584;2023-08-21T00:57:12;10.20;;;5.47;;
38208;SDS011;24016;52.102;11.584;2023-08-21T00:59:39;8.88;;;5.88;;
38208;SDS011;24016;52.102;11.584;2023-08-21T01:02:05;8.23;;;5.45;;
38208;SDS011;24016;52.102;11.584;2023-08-21T01:04:31;9.02;;;5.32;;
38208;SDS011;24016;52.102;11.584;2023-08-21T01:06:56;8.20;;;5.63;;
38208;SDS011;24016;52.102;11.584;2023-08-21T01:14:58;7.68;;;5.63;;
38208;SDS011;24016;52.102;11.584;2023-08-21T01:17:25;9.75;;;4.95;;
38208;SDS011;24016;52.102;11.584;2023-08-21T01:19:53;8.75;;;5.10;;
38208;SDS011;24016;52.102;11.584;2023-08-21T01:22:20;8.65;;;5.25;;
38208;SDS011;24016;52.102;11.584;2023-08-21T01:24:50;6.50;;;4.90;;
38208;SDS011;24016;52.102;11.584;2023-08-21T01:27:15;9.25;;;4.97;;
38208;SDS011;24016;52.102;11.584;2023-08-21T01:29:41;11.73;;;5.00;;
38208;SDS011;24016;52.102;11.584;2023-08-21T01:32:14;8.10;;;4.60;;
38208;SDS011;24016;52.102;11.584;2023-08-21T01:35:00;7.40;;;5.05;;
38208;SDS011;24016;52.102;11.584;2023-08-21T01:37:27;7.22;;;4.57;;
38208;SDS011;24016;52.102;11.584;2023-08-21T01:39:57;7.13;;;5.10;;
38208;SDS011;24016;52.102;11.584;2023-08-21T01:42:23;8.27;;;4.88;;
38208;SDS011;24016;52.102;11.584;2023-08-21T01:44:49;7.82;;;4.85;;
38208;SDS011;24016;52.102;11.584;2023-08-21T01:47:14;7.13;;;4.88;;
38208;SDS011;24016;52.102;11.584;2023-08-21T01:49:40;5.47;;;4.60;;
38208;SDS011;24016;52.102;11.584;2023-08-21T01:52:05;8.02;;;5.35;;
38208;SDS011;24016;52.102;11.584;2023-08-21T01:54:31;9.68;;;5.28;;
38208;SDS011;24016;52.102;11.584;2023-08-21T01:56:56;5.85;;;4.70;;
38208;SDS011;24016;52.102;11.584;2023-08-21T01:59:23;8.60;;;4.97;;
38208;SDS011;24016;52.102;11.584;2023-08-21T02:01:49;9.02;;;5.07;;
38208;SDS011;24016;52.102;11.584;2023-08-21T02:04:14;7.70;;;4.90;;
38208;SDS011;24016;52.102;11.584;2023-08-21T02:06:40;10.73;;;5.50;;
38208;SDS011;24016;52.102;11.584;2023-08-21T02:09:05;9.88;;;4.70;;
38208;SDS011;24016;52.102;11.584;2023-08-21T02:11:31;8.70;;;5.25;;
38208;SDS011;24016;52.102;11.584;2023-08-21T02:13:57;12.90;;;5.10;;
38208;SDS011;24016;52.102;11.584;2023-08-21T02:16:23;16.65;;;6.07;;
38208;SDS011;24016;52.102;11.584;2023-08-21T02:18:48;7.57;;;4.63;;
38208;SDS011;24016;52.102;11.584;2023-08-21T02:21:14;9.02;;;4.85;;
38208;SDS011;24016;52.102;11.584;2023-08-21T02:23:39;6.25;;;4.53;;
38208;SDS011;24016;52.102;11.584;2023-08-21T02:26:05;5.78;;;4.70;;
38208;SDS011;24016;52.102;11.584;2023-08-21T02:28:30;6.43;;;4.72;;
38208;SDS011;24016;52.102;11.584;2023-08-21T02:30:56;6.82;;;4.60;;
38208;SDS011;24016;52.102;11.584;2023-08-21T02:33:21;9.88;;;4.70;;
38208;SDS011;24016;52.102;11.584;2023-08-21T02:35:47;10.50;;;5.47;;
38208;SDS011;24016;52.102;11.584;2023-08-21T02:38:12;7.70;;;4.95;;
38208;SDS011;24016;52.102;11.584;2023-08-21T02:40:38;8.07;;;4.70;;
38208;SDS011;24016;52.102;11.584;2023-08-21T02:43:04;7.57;;;5.00;;
38208;SDS011;24016;52.102;11.584;2023-08-21T02:45:30;6.95;;;4.90;;
38208;SDS011;24016;52.102;11.584;2023-08-21T02:47:56;7.55;;;5.00;;
38208;SDS011;24016;52.102;11.584;2023-08-21T02:50:21;6.50;;;4.75;;
38208;SDS011;24016;52.102;11.584;2023-08-21T02:52:47;8.48;;;5.10;;
38208;SDS011;24016;52.102;11.584;2023-08-21T02:55:12;6.95;;;4.70;;
38208;SDS011;24016;52.102;11.584;2023-08-21T02:57:39;6.78;;;5.28;;
38208;SDS011;24016;52.102;11.584;2023-08-21T03:00:05;10.40;;;5.10;;
38208;SDS011;24016;52.102;11.584;2023-08-21T03:02:32;7.80;;;5.13;;
38208;SDS011;24016;52.102;11.584;2023-08-21T03:04:58;7.47;;;5.32;;
38208;SDS011;24016;52.102;11.584;2023-08-21T03:07:23;10.40;;;5.57;;
38208;SDS011;24016;52.102;11.584;2023-08-21T03:09:49;8.95;;;5.13;;
38208;SDS011;24016;52.102;11.584;2023-08-21T03:12:15;9.95;;;5.10;;
38208;SDS011;24016;52.102;11.584;2023-08-21T03:14:41;6.57;;;4.80;;
38208;SDS011;24016;52.102;11.584;2023-08-21T03:17:06;8.13;;;5.15;;
38208;SDS011;24016;52.102;11.584;2023-08-21T03:19:32;8.02;;;4.93;;
38208;SDS011;24016;52.102;11.584;2023-08-21T03:21:57;6.72;;;4.63;;
38208;SDS011;24016;52.102;11.584;2023-08-21T03:24:23;8.60;;;5.10;;
38208;SDS011;24016;52.102;11.584;2023-08-21T03:26:48;11.93;;;5.32;;
38208;SDS011;24016;52.102;11.584;2023-08-21T03:29:14;8.07;;;4.63;;
38208;SDS011;24016;52.102;11.584;2023-08-21T03:31:39;8.48;;;5.03;;
38208;SDS011;24016;52.102;11.584;2023-08-21T03:34:05;7.68;;;5.00;;
38208;SDS011;24016;52.102;11.584;2023-08-21T03:36:30;7.10;;;4.53;;
38208;SDS011;24016;52.102;11.584;2023-08-21T03:38:57;8.05;;;4.40;;
38208;SDS011;24016;52.102;11.584;2023-08-21T03:41:23;10.98;;;5.13;;
38208;SDS011;24016;52.102;11.584;2023-08-21T03:43:49;11.70;;;4.88;;
38208;SDS011;24016;52.102;11.584;2023-08-21T03:46:14;6.78;;;4.85;;
38208;SDS011;24016;52.102;11.584;2023-08-21T03:48:40;10.10;;;5.07;;
38208;SDS011;24016;52.102;11.584;2023-08-21T03:51:05;6.85;;;4.65;;
38208;SDS011;24016;52.102;11.584;2023-08-21T03:53:31;7.82;;;4.95;;
38208;SDS011;24016;52.102;11.584;2023-08-21T03:55:56;6.05;;;4.63;;
38208;SDS011;24016;52.102;11.584;2023-08-21T03:58:22;6.72;;;4.78;;
38208;SDS011;24016;52.102;11.584;2023-08-21T04:00:50;7.05;;;4.50;;
38208;SDS011;24016;52.102;11.584;2023-08-21T04:03:15;9.68;;;4.72;;
38208;SDS011;24016;52.102;11.584;2023-08-21T04:05:41;7.18;;;5.00;;
38208;SDS011;24016;52.102;11.584;2023-08-21T04:08:07;8.60;;;4.97;;
38208;SDS011;24016;52.102;11.584;2023-08-21T04:10:32;8.23;;;5.10;;
38208;SDS011;24016;52.102;11.584;2023-08-21T04:12:58;8.52;;;4.72;;
38208;SDS011;24016;52.102;11.584;2023-08-21T04:15:23;7.47;;;4.95;;
38208;SDS011;24016;52.102;11.584;2023-08-21T04:17:49;6.57;;;5.40;;
38208;SDS011;24016;52.102;11.584;2023-08-21T04:20:15;8.23;;;5.70;;
38208;SDS011;24016;52.102;11.584;2023-08-21T04:22:41;6.85;;;5.60;;
38208;SDS011;24016;52.102;11.584;2023-08-21T04:25:06;8.30;;;5.22;;
38208;SDS011;24016;52.102;11.584;2023-08-21T04:27:32;7.90;;;5.05;;
38208;SDS011;24016;52.102;11.584;2023-08-21T04:29:58;11.65;;;4.95;;
38208;SDS011;24016;52.102;11.584;2023-08-21T04:32:24;10.55;;;4.85;;
38208;SDS011;24016;52.102;11.584;2023-08-21T04:34:49;6.93;;;4.63;;
38208;SDS011;24016;52.102;11.584;2023-08-21T04:37:15;8.20;;;5.13;;
38208;SDS011;24016;52.102;11.584;2023-08-21T04:39:41;10.18;;;5.25;;
38208;SDS011;24016;52.102;11.584;2023-08-21T04:42:06;9.52;;;5.30;;
38208;SDS011;24016;52.102;11.584;2023-08-21T04:44:32;8.55;;;5.22;;
38208;SDS011;24016;52.102;11.584;2023-08-21T04:46:57;9.27;;;5.65;;
38208;SDS011;24016;52.102;11.584;2023-08-21T04:49:43;8.05;;;5.35;;
38208;SDS011;24016;52.102;11.584;2023-08-21T04:52:08;6.03;;;5.32;;
38208;SDS011;24016;52.102;11.584;2023-08-21T04:54:34;10.77;;;5.85;;
38208;SDS011;24016;52.102;11.584;2023-08-21T04:56:59;9.00;;;6.03;;
38208;SDS011;24016;52.102;11.584;2023-08-21T04:59:25;10.50;;;5.68;;
38208;SDS011;24016;52.102;11.584;2023-08-21T05:01:51;8.35;;;5.30;;
38208;SDS011;24016;52.102;11.584;2023-08-21T05:04:17;8.52;;;5.70;;
38208;SDS011;24016;52.102;11.584;2023-08-21T05:06:43;8.13;;;6.05;;
38208;SDS011;24016;52.102;11.584;2023-08-21T05:09:08;9.52;;;5.88;;
38208;SDS011;24016;52.102;11.584;2023-08-21T05:11:34;7.95;;;5.65;;
38208;SDS011;24016;52.102;11.584;2023-08-21T05:13:59;7.22;;;6.10;;
38208;SDS011;24016;52.102;11.584;2023-08-21T05:16:25;8.45;;;6.18;;
38208;SDS011;24016;52.102;11.584;2023-08-21T05:18:50;9.10;;;6.05;;
38208;SDS011;24016;52.102;11.584;2023-08-21T05:21:16;7.43;;;5.63;;
38208;SDS011;24016;52.102;11.584;2023-08-21T05:23:41;6.97;;;5.50;;
38208;SDS011;24016;52.102;11.584;2023-08-21T05:26:07;9.93;;;5.60;;
38208;SDS011;24016;52.102;11.584;2023-08-21T05:28:32;9.13;;;5.60;;
38208;SDS011;24016;52.102;11.584;2023-08-21T05:30:58;6.90;;;4.53;;
38208;SDS011;24016;52.102;11.584;2023-08-21T05:33:23;7.25;;;4.85;;
38208;SDS011;24016;52.102;11.584;2023-08-21T05:35:49;8.60;;;5.15;;
38208;SDS011;24016;52.102;11.584;2023-08-21T05:38:14;8.18;;;4.45;;
38208;SDS011;24016;52.102;11.584;2023-08-21T05:40:40;9.68;;;4.53;;
38208;SDS011;24016;52.102;11.584;2023-08-21T05:43:08;8.88;;;4.70;;
38208;SDS011;24016;52.102;11.584;2023-08-21T05:45:34;7.18;;;4.20;;
38208;SDS011;24016;52.102;11.584;2023-08-21T05:47:59;6.15;;;4.60;;
38208;SDS011;24016;52.102;11.584;2023-08-21T05:50:25;9.10;;;4.78;;
38208;SDS011;24016;52.102;11.584;2023-08-21T05:52:50;8.93;;;4.40;;
38208;SDS011;24016;52.102;11.584;2023-08-21T05:55:17;11.10;;;4.80;;
38208;SDS011;24016;52.102;11.584;2023-08-21T05:57:43;11.48;;;4.70;;
38208;SDS011;24016;52.102;11.584;2023-08-21T06:00:08;10.75;;;4.78;;
38208;SDS011;24016;52.102;11.584;2023-08-21T06:02:34;8.07;;;5.15;;
38208;SDS011;24016;52.102;11.584;2023-08-21T06:05:00;7.75;;;4.50;;
38208;SDS011;24016;52.102;11.584;2023-08-21T06:07:26;7.00;;;4.15;;
38208;SDS011;24016;52.102;11.584;2023-08-21T06:09:52;9.25;;;4.55;;
38208;SDS011;24016;52.102;11.584;2023-08-21T06:12:18;6.53;;;4.13;;
38208;SDS011;24016;52.102;11.584;2023-08-21T06:14:43;8.57;;;4.75;;
38208;SDS011;24016;52.102;11.584;2023-08-21T06:17:09;6.35;;;4.47;;
38208;SDS011;24016;52.102;11.584;2023-08-21T06:19:35;8.40;;;4.45;;
38208;SDS011;24016;52.102;11.584;2023-08-21T06:22:01;12.30;;;5.65;;
38208;SDS011;24016;52.102;11.584;2023-08-21T06:24:27;8.00;;;4.63;;
38208;SDS011;24016;52.102;11.584;2023-08-21T06:26:52;9.60;;;4.63;;
38208;SDS011;24016;52.102;11.584;2023-08-21T06:29:18;9.00;;;4.63;;
38208;SDS011;24016;52.102;11.584;2023-08-21T06:31:45;10.98;;;4.90;;
38208;SDS011;24016;52.102;11.584;2023-08-21T06:34:11;9.38;;;4.18;;
38208;SDS011;24016;52.102;11.584;2023-08-21T06:36:37;8.45;;;4.13;;
38208;SDS011;24016;52.102;11.584;2023-08-21T06:39:02;7.45;;;3.70;;
38208;SDS011;24016;52.102;11.584;2023-08-21T06:41:28;7.22;;;3.92;;
38208;SDS011;24016;52.102;11.584;2023-08-21T06:43:54;7.55;;;3.90;;
38208;SDS011;24016;52.102;11.584;2023-08-21T06:46:20;5.55;;;4.38;;
38208;SDS011;24016;52.102;11.584;2023-08-21T06:48:46;8.68;;;4.15;;
38208;SDS011;24016;52.102;11.584;2023-08-21T06:51:11;6.20;;;3.80;;
38208;SDS011;24016;52.102;11.584;2023-08-21T06:53:37;8.77;;;4.38;;
38208;SDS011;24016;52.102;11.584;2023-08-21T06:56:03;8.82;;;4.07;;
38208;SDS011;24016;52.102;11.584;2023-08-21T06:58:28;7.63;;;4.03;;
38208;SDS011;24016;52.102;11.584;2023-08-21T07:00:54;7.47;;;3.95;;
38208;SDS011;24016;52.102;11.584;2023-08-21T07:03:20;10.48;;;4.57;;
38208;SDS011;24016;52.102;11.584;2023-08-21T07:05:46;10.05;;;4.20;;
38208;SDS011;24016;52.102;11.584;2023-08-21T07:08:20;10.00;;;4.43;;
38208;SDS011;24016;52.102;11.584;2023-08-21T07:10:45;7.72;;;4.35;;
38208;SDS011;24016;52.102;11.584;2023-08-21T07:13:11;12.95;;;4.18;;
38208;SDS011;24016;52.102;11.584;2023-08-21T07:15:36;12.35;;;4.50;;
38208;SDS011;24016;52.102;11.584;2023-08-21T07:18:02;11.23;;;4.40;;
38208;SDS011;24016;52.102;11.584;2023-08-21T07:20:28;9.30;;;3.97;;
38208;SDS011;24016;52.102;11.584;2023-08-21T07:22:53;7.15;;;3.90;;
38208;SDS011;24016;52.102;11.584;2023-08-21T07:25:19;7.70;;;3.63;;
38208;SDS011;24016;52.102;11.584;2023-08-21T07:27:44;8.10;;;3.63;;
38208;SDS011;24016;52.102;11.584;2023-08-21T07:30:10;10.65;;;3.90;;
38208;SDS011;24016;52.102;11.584;2023-08-21T07:32:36;13.15;;;3.80;;
38208;SDS011;24016;52.102;11.584;2023-08-21T07:35:02;10.52;;;4.05;;
38208;SDS011;24016;52.102;11.584;2023-08-21T07:37:27;5.22;;;2.47;;
38208;SDS011;24016;52.102;11.584;2023-08-21T07:39:53;5.93;;;2.38;;
38208;SDS011;24016;52.102;11.584;2023-08-21T07:42:22;5.30;;;2.25;;
38208;SDS011;24016;52.102;11.584;2023-08-21T07:44:48;6.18;;;2.30;;
38208;SDS011;24016;52.102;11.584;2023-08-21T07:47:13;4.32;;;1.90;;
38208;SDS011;24016;52.102;11.584;2023-08-21T07:49:39;3.75;;;1.70;;
38208;SDS011;24016;52.102;11.584;2023-08-21T07:52:05;4.72;;;1.90;;
38208;SDS011;24016;52.102;11.584;2023-08-21T07:54:30;4.03;;;1.50;;
38208;SDS011;24016;52.102;11.584;2023-08-21T07:56:56;6.80;;;2.00;;
38208;SDS011;24016;52.102;11.584;2023-08-21T07:59:21;5.65;;;1.85;;
38208;SDS011;24016;52.102;11.584;2023-08-21T08:01:47;6.53;;;1.63;;
38208;SDS011;24016;52.102;11.584;2023-08-21T08:04:13;3.53;;;1.35;;
38208;SDS011;24016;52.102;11.584;2023-08-21T08:06:38;4.28;;;1.30;;
38208;SDS011;24016;52.102;11.584;2023-08-21T08:09:04;7.07;;;1.48;;
38208;SDS011;24016;52.102;11.584;2023-08-21T08:11:29;5.95;;;1.38;;
38208;SDS011;24016;52.102;11.584;2023-08-21T08:13:55;7.32;;;1.50;;
38208;SDS011;24016;52.102;11.584;2023-08-21T08:16:21;3.83;;;1.30;;
38208;SDS011;24016;52.102;11.584;2023-08-21T08:18:46;2.75;;;1.35;;
38208;SDS011;24016;52.102;11.584;2023-08-21T08:21:12;3.92;;;1.67;;
38208;SDS011;24016;52.102;11.584;2023-08-21T08:23:37;3.80;;;1.48;;
38208;SDS011;24016;52.102;11.584;2023-08-21T08:26:03;5.80;;;1.50;;
38208;SDS011;24016;52.102;11.584;2023-08-21T08:28:29;3.78;;;1.88;;
38208;SDS011;24016;52.102;11.584;2023-08-21T08:30:54;5.60;;;1.83;;
38208;SDS011;24016;52.102;11.584;2023-08-21T08:33:20;4.30;;;1.88;;
38208;SDS011;24016;52.102;11.584;2023-08-21T08:35:45;3.83;;;1.67;;
38208;SDS011;24016;52.102;11.584;2023-08-21T08:38:11;4.82;;;1.90;;
38208;SDS011;24016;52.102;11.584;2023-08-21T08:40:37;4.20;;;1.77;;
38208;SDS011;24016;52.102;11.584;2023-08-21T08:43:08;5.63;;;1.60;;
38208;SDS011;24016;52.102;11.584;2023-08-21T08:45:36;4.57;;;2.05;;
38208;SDS011;24016;52.102;11.584;2023-08-21T08:48:02;4.22;;;1.70;;
38208;SDS011;24016;52.102;11.584;2023-08-21T08:50:29;5.13;;;1.60;;
38208;SDS011;24016;52.102;11.584;2023-08-21T08:52:56;9.13;;;1.50;;
38208;SDS011;24016;52.102;11.584;2023-08-21T08:55:23;4.60;;;1.50;;
38208;SDS011;24016;52.102;11.584;2023-08-21T08:57:49;4.47;;;1.55;;
38208;SDS011;24016;52.102;11.584;2023-08-21T09:00:15;3.33;;;1.40;;
38208;SDS011;24016;52.102;11.584;2023-08-21T09:02:41;9.65;;;1.90;;
38208;SDS011;24016;52.102;11.584;2023-08-21T09:05:06;5.22;;;1.77;;
38208;SDS011;24016;52.102;11.584;2023-08-21T09:07:33;5.75;;;2.13;;
38208;SDS011;24016;52.102;11.584;2023-08-21T09:10:00;4.88;;;1.50;;
38208;SDS011;24016;52.102;11.584;2023-08-21T09:12:25;6.18;;;1.73;;
38208;SDS011;24016;52.102;11.584;2023-08-21T09:14:51;7.38;;;1.40;;
38208;SDS011;24016;52.102;11.584;2023-08-21T09:17:17;4.28;;;1.20;;
38208;SDS011;24016;52.102;11.584;2023-08-21T09:19:43;4.97;;;1.52;;
38208;SDS011;24016;52.102;11.584;2023-08-21T09:22:15;4.40;;;1.52;;
38208;SDS011;24016;52.102;11.584;2023-08-21T09:27:38;4.53;;;1.52;;
38208;SDS011;24016;52.102;11.584;2023-08-21T09:30:05;4.95;;;1.40;;
38208;SDS011;24016;52.102;11.584;2023-08-21T09:32:51;3.50;;;1.20;;
38208;SDS011;24016;52.102;11.584;2023-08-21T09:35:17;3.70;;;1.50;;
38208;SDS011;24016;52.102;11.584;2023-08-21T09:37:44;4.75;;;1.60;;
38208;SDS011;24016;52.102;11.584;2023-08-21T09:40:11;4.30;;;1.65;;
38208;SDS011;24016;52.102;11.584;2023-08-21T09:42:38;3.65;;;1.60;;
38208;SDS011;24016;52.102;11.584;2023-08-21T09:45:04;4.03;;;1.55;;
38208;SDS011;24016;52.102;11.584;2023-08-21T09:47:30;2.92;;;1.48;;
38208;SDS011;24016;52.102;11.584;2023-08-21T09:49:57;5.68;;;1.88;;
38208;SDS011;24016;52.102;11.584;2023-08-21T09:52:24;5.13;;;1.70;;
38208;SDS011;24016;52.102;11.584;2023-08-21T09:54:50;2.95;;;1.50;;
38208;SDS011;24016;52.102;11.584;2023-08-21T09:57:18;4.68;;;1.52;;
38208;SDS011;24016;52.102;11.584;2023-08-21T09:59:48;6.00;;;1.60;;
38208;SDS011;24016;52.102;11.584;2023-08-21T10:02:17;4.50;;;1.63;;
38208;SDS011;24016;52.102;11.584;2023-08-21T10:04:43;4.40;;;1.83;;
38208;SDS011;24016;52.102;11.584;2023-08-21T10:07:10;4.43;;;1.60;;
38208;SDS011;24016;52.102;11.584;2023-08-21T10:09:38;7.38;;;1.95;;
38208;SDS011;24016;52.102;11.584;2023-08-21T10:12:08;7.70;;;1.80;;
38208;SDS011;24016;52.102;11.584;2023-08-21T10:14:34;4.05;;;1.70;;
38208;SDS011;24016;52.102;11.584;2023-08-21T10:17:01;8.57;;;1.77;;
38208;SDS011;24016;52.102;11.584;2023-08-21T10:19:30;4.78;;;1.75;;
38208;SDS011;24016;52.102;11.584;2023-08-21T10:21:57;6.00;;;1.70;;
38208;SDS011;24016;52.102;11.584;2023-08-21T10:24:27;3.70;;;1.60;;
38208;SDS011;24016;52.102;11.584;2023-08-21T10:26:54;4.57;;;1.52;;
38208;SDS011;24016;52.102;11.584;2023-08-21T10:29:22;3.63;;;1.48;;
38208;SDS011;24016;52.102;11.584;2023-08-21T10:31:48;6.60;;;1.80;;
38208;SDS011;24016;52.102;11.584;2023-08-21T10:34:25;3.50;;;1.88;;
38208;SDS011;24016;52.102;11.584;2023-08-21T10:39:34;3.72;;;1.65;;
38208;SDS011;24016;52.102;11.584;2023-08-21T10:42:06;5.05;;;1.92;;
38208;SDS011;24016;52.102;11.584;2023-08-21T10:47:23;7.50;;;1.90;;
38208;SDS011;24016;52.102;11.584;2023-08-21T10:49:52;5.00;;;1.65;;
38208;SDS011;24016;52.102;11.584;2023-08-21T10:52:23;2.92;;;1.50;;
38208;SDS011;24016;52.102;11.584;2023-08-21T10:54:52;4.03;;;1.90;;
38208;SDS011;24016;52.102;11.584;2023-08-21T10:57:20;3.80;;;1.75;;
38208;SDS011;24016;52.102;11.584;2023-08-21T10:59:53;4.97;;;1.88;;
38208;SDS011;24016;52.102;11.584;2023-08-21T11:02:29;4.40;;;1.65;;
38208;SDS011;24016;52.102;11.584;2023-08-21T11:04:55;5.18;;;1.73;;
38208;SDS011;24016;52.102;11.584;2023-08-21T11:07:22;7.25;;;1.75;;
38208;SDS011;24016;52.102;11.584;2023-08-21T11:09:48;5.82;;;1.67;;
38208;SDS011;24016;52.102;11.584;2023-08-21T11:12:15;5.28;;;2.00;;
38208;SDS011;24016;52.102;11.584;2023-08-21T11:14:42;4.25;;;1.80;;
38208;SDS011;24016;52.102;11.584;2023-08-21T11:17:08;3.15;;;1.48;;
38208;SDS011;24016;52.102;11.584;2023-08-21T11:19:34;6.72;;;1.85;;
38208;SDS011;24016;52.102;11.584;2023-08-21T11:22:01;5.40;;;1.80;;
38208;SDS011;24016;52.102;11.584;2023-08-21T11:27:02;4.65;;;1.60;;
38208;SDS011;24016;52.102;11.584;2023-08-21T11:29:29;6.10;;;1.65;;
38208;SDS011;24016;52.102;11.584;2023-08-21T11:32:01;4.40;;;1.73;;
38208;SDS011;24016;52.102;11.584;2023-08-21T11:34:28;3.92;;;1.60;;
38208;SDS011;24016;52.102;11.584;2023-08-21T11:36:54;5.47;;;1.77;;
38208;SDS011;24016;52.102;11.584;2023-08-21T11:39:20;4.32;;;1.67;;
38208;SDS011;24016;52.102;11.584;2023-08-21T11:41:56;5.60;;;2.17;;
38208;SDS011;24016;52.102;11.584;2023-08-21T11:44:22;4.00;;;1.52;;
38208;SDS011;24016;52.102;11.584;2023-08-21T11:46:50;5.90;;;1.63;;
38208;SDS011;24016;52.102;11.584;2023-08-21T11:49:17;3.38;;;1.60;;
38208;SDS011;24016;52.102;11.584;2023-08-21T11:51:43;5.55;;;1.65;;
38208;SDS011;24016;52.102;11.584;2023-08-21T11:54:11;6.07;;;1.58;;
38208;SDS011;24016;52.102;11.584;2023-08-21T11:56:36;5.00;;;1.60;;
38208;SDS011;24016;52.102;11.584;2023-08-21T11:59:04;4.20;;;1.73;;
38208;SDS011;24016;52.102;11.584;2023-08-21T12:01:32;3.78;;;1.60;;
38208;SDS011;24016;52.102;11.584;2023-08-21T12:03:58;4.65;;;1.33;;
38208;SDS011;24016;52.102;11.584;2023-08-21T12:06:24;3.90;;;1.33;;
38208;SDS011;24016;52.102;11.584;2023-08-21T12:08:51;3.20;;;1.40;;
38208;SDS011;24016;52.102;11.584;2023-08-21T12:11:16;3.85;;;1.20;;
38208;SDS011;24016;52.102;11.584;2023-08-21T12:13:42;5.45;;;1.55;;
38208;SDS011;24016;52.102;11.584;2023-08-21T12:16:07;5.95;;;1.38;;
38208;SDS011;24016;52.102;11.584;2023-08-21T12:18:33;4.00;;;1.35;;
38208;SDS011;24016;52.102;11.584;2023-08-21T12:20:59;5.03;;;1.52;;
38208;SDS011;24016;52.102;11.584;2023-08-21T12:23:24;3.28;;;1.20;;
38208;SDS011;24016;52.102;11.584;2023-08-21T12:25:50;4.80;;;1.50;;
38208;SDS011;24016;52.102;11.584;2023-08-21T12:28:16;3.40;;;1.30;;
38208;SDS011;24016;52.102;11.584;2023-08-21T12:30:41;4.15;;;1.17;;
38208;SDS011;24016;52.102;11.584;2023-08-21T12:33:07;5.95;;;1.27;;
38208;SDS011;24016;52.102;11.584;2023-08-21T12:35:32;3.03;;;1.20;;
38208;SDS011;24016;52.102;11.584;2023-08-21T12:37:58;3.72;;;1.13;;
38208;SDS011;24016;52.102;11.584;2023-08-21T12:40:29;2.47;;;1.10;;
38208;SDS011;24016;52.102;11.584;2023-08-21T12:42:55;3.63;;;1.38;;
38208;SDS011;24016;52.102;11.584;2023-08-21T12:45:20;5.30;;;1.38;;
38208;SDS011;24016;52.102;11.584;2023-08-21T12:47:46;3.28;;;1.08;;
38208;SDS011;24016;52.102;11.584;2023-08-21T12:50:11;4.07;;;1.40;;
38208;SDS011;24016;52.102;11.584;2023-08-21T12:52:38;4.82;;;1.50;;
38208;SDS011;24016;52.102;11.584;2023-08-21T12:55:06;4.05;;;1.23;;
38208;SDS011;24016;52.102;11.584;2023-08-21T12:57:32;6.57;;;1.38;;
38208;SDS011;24016;52.102;11.584;2023-08-21T12:59:57;5.07;;;1.52;;
38208;SDS011;24016;52.102;11.584;2023-08-21T13:02:23;6.18;;;1.30;;
38208;SDS011;24016;52.102;11.584;2023-08-21T13:04:49;5.15;;;1.50;;
38208;SDS011;24016;52.102;11.584;2023-08-21T13:07:15;3.95;;;1.63;;
38208;SDS011;24016;52.102;11.584;2023-08-21T13:09:40;5.25;;;1.60;;
38208;SDS011;24016;52.102;11.584;2023-08-21T13:12:06;3.58;;;1.30;;
38208;SDS011;24016;52.102;11.584;2023-08-21T13:14:33;4.03;;;1.25;;
38208;SDS011;24016;52.102;11.584;2023-08-21T13:16:59;3.83;;;1.42;;
38208;SDS011;24016;52.102;11.584;2023-08-21T13:19:24;3.67;;;1.20;;
38208;SDS011;24016;52.102;11.584;2023-08-21T13:21:50;11.18;;;1.83;;
38208;SDS011;24016;52.102;11.584;2023-08-21T13:24:16;3.50;;;1.40;;
38208;SDS011;24016;52.102;11.584;2023-08-21T13:26:41;6.45;;;1.77;;
38208;SDS011;24016;52.102;11.584;2023-08-21T13:29:07;5.13;;;1.60;;
38208;SDS011;24016;52.102;11.584;2023-08-21T13:31:33;2.80;;;1.30;;
38208;SDS011;24016;52.102;11.584;2023-08-21T13:33:58;7.00;;;1.52;;
38208;SDS011;24016;52.102;11.584;2023-08-21T13:36:25;3.70;;;1.13;;
38208;SDS011;24016;52.102;11.584;2023-08-21T13:38:52;5.95;;;1.63;;
38208;SDS011;24016;52.102;11.584;2023-08-21T13:41:17;5.35;;;1.48;;
38208;SDS011;24016;52.102;11.584;2023-08-21T13:43:43;4.45;;;1.75;;
38208;SDS011;24016;52.102;11.584;2023-08-21T13:46:09;5.25;;;1.42;;
38208;SDS011;24016;52.102;11.584;2023-08-21T13:48:34;6.97;;;1.52;;
38208;SDS011;24016;52.102;11.584;2023-08-21T13:50:59;4.43;;;1.23;;
38208;SDS011;24016;52.102;11.584;2023-08-21T13:53:25;5.95;;;1.40;;
38208;SDS011;24016;52.102;11.584;2023-08-21T13:55:51;7.13;;;1.70;;
38208;SDS011;24016;52.102;11.584;2023-08-21T13:58:16;6.35;;;1.20;;
38208;SDS011;24016;52.102;11.584;2023-08-21T14:00:42;6.22;;;1.42;;
38208;SDS011;24016;52.102;11.584;2023-08-21T14:03:09;3.63;;;1.30;;
38208;SDS011;24016;52.102;11.584;2023-08-21T14:05:35;5.78;;;1.45;;
38208;SDS011;24016;52.102;11.584;2023-08-21T14:08:01;6.18;;;1.77;;
38208;SDS011;24016;52.102;11.584;2023-08-21T14:10:27;4.15;;;1.48;;
38208;SDS011;24016;52.102;11.584;2023-08-21T14:12:52;5.95;;;1.40;;
38208;SDS011;24016;52.102;11.584;2023-08-21T14:15:18;5.38;;;1.67;;
38208;SDS011;24016;52.102;11.584;2023-08-21T14:17:44;6.80;;;1.73;;
38208;SDS011;24016;52.102;11.584;2023-08-21T14:20:10;4.38;;;1.63;;
38208;SDS011;24016;52.102;11.584;2023-08-21T14:22:36;5.10;;;1.45;;
38208;SDS011;24016;52.102;11.584;2023-08-21T14:25:02;4.60;;;1.52;;
38208;SDS011;24016;52.102;11.584;2023-08-21T14:27:30;5.80;;;1.40;;
38208;SDS011;24016;52.102;11.584;2023-08-21T14:29:56;3.10;;;1.45;;
38208;SDS011;24016;52.102;11.584;2023-08-21T14:32:22;3.22;;;1.25;;
38208;SDS011;24016;52.102;11.584;2023-08-21T14:34:48;7.75;;;1.45;;
38208;SDS011;24016;52.102;11.584;2023-08-21T14:37:13;3.50;;;1.42;;
38208;SDS011;24016;52.102;11.584;2023-08-21T14:39:41;7.03;;;1.90;;
38208;SDS011;24016;52.102;11.584;2023-08-21T14:42:07;4.25;;;1.52;;
38208;SDS011;24016;52.102;11.584;2023-08-21T14:44:33;3.72;;;1.65;;